Portada
METAR-TAF:

METAR-TAF

Aeroports :

Loei, Tailàndia

latitud: 17-27N, longitud: 101-44E, altitud: 253 m

Observació

L'informe es va fer fa 8 hores i 18 minuts, a les 12:00 UTC
Vent 1 kt amb direcció variable
Temperatura 28°C
Humitat 79%
Pressió 1011 hPa
Visibilitat 10 km o més
Cel ennuvolat a una alçada de 3000 ft

METAR: VTUL 121200Z VRB01KT 9999 BKN030 28/24 Q1011 NOSIG

Hora: 03:18 (20:18 UTC)

Pronòstic

L'informe es va fer fa 3 hores i 18 minuts, a les 17:00 UTC
Pronòstic vàlid del 12 a les 18 UTC al 13 a les 18 UTC
Vent 5 kt del Oest/Sud-Oest
Visibilitat: 8000 m
Núvols disperses a una alçada de 3000 ft
Temporalment
l' 13 a les 05 UTC al 13 a les 11 UTC
Vent 15 kt amb direcció variable
Visibilitat: 4000 m
Escasses núvols a una alçada de 1800 ft, Cumulonimbus.
Cel ennuvolat a una alçada de 2000 ft
tempesta, pluja

TAF: VTUL 121700Z 1218/1318 24005KT 8000 SCT030 TEMPO 1305/1311 VRB15KT 4000 TSRA FEW018CB BKN020

Observacions i pronòstics meteorològics de més de 4000 aeroports (METAR i TAF).

Les estacions disponibles són els punts grocs i vermells al mapa.

Posi el ratolí al punt desitjat per veure el nom de l'estació.

Feu clic per veure les observacions i els pronòstics meteorològics.

Per canviar el mapa: feu clic els botons verds amb una creu de color negre per apropar; al botó verd amb un guió per allunyar la imatge; o en les fletxes verdes per a mapes adjacents.


METAR-TAF: